Wetterstation Vordersexau
Wetterdaten: Februar 2018
Datum Temp. A. Feuchte A. Luftdruck Regen Wind Richtung Taupunkt Windchill Windben
02.02.2018 1,4 C 83 % 1005,9 hPa 0,0 l/m 5,0 km/h W-SW -1,2 C -0,6 C 2,8 km/h
03.02.2018 2,1 C 83 % 1005,3 hPa 0,0 l/m 3,3 km/h SO -0,5 C 0,7 C 1,9 km/h
04.02.2018 2,1 C 78 % 1011,9 hPa 0,5 l/m 1,9 km/h SO -1,5 C 1,5 C 1,0 km/h
05.02.2018 1,6 C 82 % 1015,8 hPa 0,0 l/m 0,0 km/h W -1,2 C 1,6 C 0,0 km/h
06.02.2018 1,1 C 81 % 1008,9 hPa 0,0 l/m 0,0 km/h N-NW -1,9 C 1,1 C 0,0 km/h
07.02.2018 0,2 C 85 % 1009,9 hPa 0,0 l/m 0,4 km/h W-SW -2,0 C 0,1 C 0,2 km/h
08.02.2018 1,2 C 84 % 1015,8 hPa 1,0 l/m 0,0 km/h W-SW -1,3 C 1,2 C 0,0 km/h
09.02.2018 2,0 C 82 % 1013,3 hPa 0,0 l/m 2,8 km/h W-NW -0,8 C 1,0 C 1,5 km/h
10.02.2018 2,4 C 80 % 1014,8 hPa 0,0 l/m 7,1 km/h W -0,7 C -0,4 C 4,0 km/h
11.02.2018 3,1 C 79 % 1007,6 hPa 0,0 l/m 11,8 km/h S -0,2 C -1,3 C 6,6 km/h
12.02.2018 1,5 C 78 % 1013,4 hPa 1,0 l/m 0,3 km/h SO -2,0 C 1,4 C 0,2 km/h
13.02.2018 0,8 C 68 % 1011,7 hPa 15,0 l/m 10,0 km/h O-SO -4,8 C -3,2 C 5,6 km/h
14.02.2018 1,0 C 67 % 1013,1 hPa 0,0 l/m 4,5 km/h O-SO -4,9 C -0,3 C 2,5 km/h
15.02.2018 3,6 C 83 % 1014,0 hPa 7,8 l/m 2,4 km/h N-NO 0,9 C 2,8 C 1,3 km/h
16.02.2018 7,2 C 77 % 1021,6 hPa 3,6 l/m 0,4 km/h N-NO 3,3 C 7,1 C 0,2 km/h
17.02.2018 1,4 C 80 % 1016,6 hPa 13,5 l/m 0,3 km/h W -1,7 C 1,4 C 0,2 km/h
18.02.2018 1,1 C 82 % 1022,3 hPa 2,6 l/m 0,8 km/h W -1,7 C 0,7 C 0,4 km/h
19.02.2018 1,5 C 81 % 1016,1 hPa 0,0 l/m 0,0 km/h NO -1,4 C 1,5 C 0,0 km/h
20.02.2018 0,8 C 80 % 1013,1 hPa 0,0 l/m 0,8 km/h N -2,3 C 0,5 C 0,4 km/h
21.02.2018 2,0 C 68 % 1014,9 hPa 0,0 l/m 7,2 km/h N-NO -3,6 C -0,4 C 4,0 km/h
22.02.2018 0,1 C 67 % 1011,8 hPa 0,0 l/m 4,8 km/h N-NO -5,4 C -1,7 C 2,7 km/h
23.02.2018 0,5 C 68 % 1011,2 hPa 0,0 l/m 2,4 km/h N-NO -4,8 C -0,4 C 1,3 km/h
24.02.2018 2,7 C 58 % 1012,1 hPa 0,0 l/m 2,7 km/h NO -5,5 C 2,0 C 1,5 km/h
25.02.2018 -1,2 C 45 % 1017,1 hPa 0,0 l/m 6,4 km/h NO -12,2 C -3,7 C 3,6 km/h
26.02.2018 -5,0 C 47 % 1017,3 hPa 0,0 l/m 3,6 km/h N-NO -14,8 C -6,3 C 2,0 km/h
27.02.2018 -6,6 C 55 % 1013,3 hPa 0,0 l/m 1,8 km/h N -14,3 C -7,1 C 1,0 km/h
28.02.2018 -4,0 C 52 % 1009,6 hPa 0,0 l/m 0,9 km/h O-SO -13,3 C -4,5 C 0,5 km/h
Min-Datum 28.02.18 25.02.18 03.02.18 8 Tage 02.02.18 - 28.02.18 14.02.18 02.02.18
Min-Zeit 05:53 15:53 14:53 - 00:53 - 05:53 07:53 00:53
Minimum -13,4 C 22 % 1003,9 hPa - 0,0 km/h - -17,0 C -16,7 C 0,0 km/h
Max-Datum 16.02.18 03.02.18 16.02.18 13.02.18 25.02.18 - 16.02.18 16.02.18 25.02.18
Max-Zeit 15:53 23:53 11:53 16:53 14:53 - 11:53 15:53 14:53
Maximum 15,3 C 87 % 1023,9 hPa 15,0 l/m 33,0 km/h
NO
- 7,3 C 15,3 C 18,4 km/h
NO
Durchschnitt 0,9 C 73 % 1013,3 hPa #45,1 l/m 3,0 km/h NO -3,7 C -0,2 C 1,7 km/h

Durchschnitt Minimum Temp.-2,6 C
Durchschnitt Maximum Temp.6,3 C
www.sexauwetter.de